< < Back
Terminal Aerodrome Forecast


Current Version              Previous Versions:   1  2  3  4  5  6  7  8  9  

Terminal Aerodrome Forecast

440
FTUS42 KGSP 290024 RRA
TAFAND
TAF
KAND 290024Z 2900/2924 VRB03KT P6SM FEW110 SCT250
      TEMPO 2900/2904 SCT110 BKN250
     FM291300 32003KT P6SM FEW060 SCT250
     FM291800 21003KT P6SM SCT060 PROB30 2921/2924 4SM -TSRA
      BKN060CB=

Latest METAR

742
SAUS70 KWBC 290700 RRK
MTRAND
METAR KAND 290656Z AUTO 32003KT 10SM CLR 20/19 A2996 RMK AO2 SLP136
T02000189


USA.gov is the U.S. government's official web portal to all federal, state and local government web resources and services.